WetterOnline ( https://www.wetteronline.de )

Wetter aktuell Nuthetal

Aktuelles Wetter: Potsdam (100m)

6-stündlich | Neueste Meldungen
Ortszeit Temperatur Wetter
Do, 17.10. 2:00 11.6° C bewölkt
Mi, 16.10. 20:00 10.6° C fast wolkenlos
Mi, 16.10. 14:00 11.7° C leichter Regen
Mi, 16.10. 8:00 14.0° C leichter Regen
Mi, 16.10. 2:00 12.2° C leicht bewölkt
Di, 15.10. 20:00 16.1° C leicht bewölkt
Di, 15.10. 14:00 21.0° C leicht bewölkt
Di, 15.10. 8:00 11.6° C leicht bewölkt
Ortszeit Temperatur Wetter
Do, 17.10. 2:30 11.5° C bewölkt
Do, 17.10. 2:20 11.5° C bedeckt
Do, 17.10. 2:10 11.5° C bedeckt
Do, 17.10. 2:00 11.6° C bewölkt
Do, 17.10. 1:40 11.6° C bedeckt
Do, 17.10. 1:30 11.5° C bewölkt
Do, 17.10. 1:00 11.1° C wolkig
Do, 17.10. 0:30 10.7° C bewölkt
Do, 17.10. 0:00 10.4° C bewölkt
Mi, 16.10. 23:30 10.1° C wolkig
Ortszeit Relative Feuchte Sichtweite
Do, 17.10. 2:00 96% 40 km
Mi, 16.10. 20:00 98% 45 km
Mi, 16.10. 14:00 91% 15 km
Mi, 16.10. 8:00 94% 22 km
Mi, 16.10. 2:00 97% 12 km
Di, 15.10. 20:00 89% 25 km
Di, 15.10. 14:00 65% 25 km
Di, 15.10. 8:00 98% 12 km
Ortszeit Relative Feuchte Sichtweite
Do, 17.10. 2:30 97% 40 km
Do, 17.10. 2:20 97% -
Do, 17.10. 2:10 97% -
Do, 17.10. 2:00 96% 40 km
Do, 17.10. 1:40 96% -
Do, 17.10. 1:30 97% 40 km
Do, 17.10. 1:00 97% 40 km
Do, 17.10. 0:30 97% 40 km
Do, 17.10. 0:00 97% 45 km
Mi, 16.10. 23:30 98% 45 km
Ortszeit Niederschlagsmenge Niederschlagsart
Do, 17.10. 2:00 0.0 l/m2 in 6 Std. -
Mi, 16.10. 20:00 5 l/m2 in 12 Std. Regen
Mi, 16.10. 14:00 3 l/m2 in 6 Std. Regen
Mi, 16.10. 8:00 0.1 l/m2 in 12 Std. -
Mi, 16.10. 2:00 0.0 l/m2 in 6 Std. -
Di, 15.10. 20:00 0.0 l/m2 in 12 Std. -
Di, 15.10. 14:00 0.0 l/m2 in 6 Std. -
Di, 15.10. 8:00 0.0 l/m2 in 12 Std. -
Ortszeit Niederschlagsmenge Niederschlagsart
Do, 17.10. 2:30 0.0 l/m2 in 1 Std. -
Do, 17.10. 2:20 keine Meldung -
Do, 17.10. 2:10 keine Meldung -
Do, 17.10. 2:00 0.0 l/m2 in 1 Std. -
Do, 17.10. 1:40 keine Meldung -
Do, 17.10. 1:30 0.0 l/m2 in 1 Std. -
Do, 17.10. 1:00 0.0 l/m2 in 1 Std. -
Do, 17.10. 0:30 0.0 l/m2 in 1 Std. -
Do, 17.10. 0:00 0.0 l/m2 in 1 Std. -
Mi, 16.10. 23:30 0.0 l/m2 in 1 Std. -
Ortszeit Stärke Spitze Richtung
km/h Bft. km/h Grad Sektor
Do, 17.10. 2:00 14 3 29 200° S
Mi, 16.10. 20:00 19 3 44 200° S
Mi, 16.10. 14:00 28 4 61 240° SW
Mi, 16.10. 8:00 28 4 43 260° W
Mi, 16.10. 2:00 11 2 18 120° SO
Di, 15.10. 20:00 13 3 20 110° O
Di, 15.10. 14:00 9 2 24 130° SO
Di, 15.10. 8:00 15 3 24 120° SO
Ortszeit Stärke Spitze Richtung
km/h Bft. km/h Grad Sektor
Do, 17.10. 2:30 14 3 22 200° S
Do, 17.10. 2:20 14 3 - 200° S
Do, 17.10. 2:10 14 3 - 210° SW
Do, 17.10. 2:00 14 3 25 200° S
Do, 17.10. 1:40 17 3 - 210° SW
Do, 17.10. 1:30 19 3 26 210° SW
Do, 17.10. 1:00 17 3 28 210° SW
Do, 17.10. 0:30 18 3 29 210° SW
Do, 17.10. 0:00 18 3 29 200° S
Mi, 16.10. 23:30 18 3 25 200° S
Ortszeit Untergrenze Bedeckung Gattung
total tief tief mittel hoch
Do, 17.10. 2:00 930 m 7/8 7/8 Sc - -
Mi, 16.10. 20:00 1500 m 1/8 1/8 Sc - -
Mi, 16.10. 14:00 240 m 8/8 7/8 Sc - -
Mi, 16.10. 8:00 240 m 8/8 7/8 St - -
Mi, 16.10. 2:00 9000 m 4/8 0/8 - - Ci
Di, 15.10. 20:00 8100 m 4/8 0/8 - - Ci
Di, 15.10. 14:00 7800 m 5/8 0/8 - - Cs
Di, 15.10. 8:00 8100 m 7/8 0/8 - - Ci
Ortszeit Bedeckungsgrad in Achtel und Wolkenuntergrenze
Do, 17.10. 2:30 2(960m) 7(1230m)
Do, 17.10. 2:20 8(1230m)
Do, 17.10. 2:10 1(960m) 8(1230m)
Do, 17.10. 2:00 4(930m) 7(1230m)
Do, 17.10. 1:40 5(930m) 8(1200m)
Do, 17.10. 1:30 7(1170m) 8(1200m)
Do, 17.10. 1:00 5(1050m) 6(1800m)
Do, 17.10. 0:30 7(1080m) 8(1500m)
Do, 17.10. 0:00 7(1140m) 8(1800m)
Mi, 16.10. 23:30 6(1230m)
Ortszeit Luftdruck NN (hPa) Tendenz (hPa in 3 Std.)
Do, 17.10. 2:00 1012 + 0,2
Mi, 16.10. 20:00 1011 + 0,6
Mi, 16.10. 14:00 1010 + 1,9
Mi, 16.10. 8:00 1006 + 1,6
Mi, 16.10. 2:00 1004 - 1,1
Di, 15.10. 20:00 1006 + 0,1
Di, 15.10. 14:00 1006 - 1,9
Di, 15.10. 8:00 1009 - 1,0
Ortszeit Luftdruck NN (hPa) Tendenz (hPa in 3 Std.)
Do, 17.10. 2:30 1012 0,0
Do, 17.10. 2:20 1012 keine Meldung
Do, 17.10. 2:10 1012 keine Meldung
Do, 17.10. 2:00 1012 + 0,2
Do, 17.10. 1:40 1012 keine Meldung
Do, 17.10. 1:30 1012 0,0
Do, 17.10. 1:00 1012 + 0,1
Do, 17.10. 0:30 1012 + 0,3
Do, 17.10. 0:00 1012 + 0,4
Mi, 16.10. 23:30 1012 + 0,6
Ortszeit Schneehöhe (cm)
Do, 17.10. 2:00 0
Mi, 16.10. 20:00 0
Mi, 16.10. 14:00 0
Mi, 16.10. 8:00 0
Mi, 16.10. 2:00 0
Di, 15.10. 20:00 0
Di, 15.10. 14:00 0
Di, 15.10. 8:00 0
Ortszeit Schneehöhe (cm)
Do, 17.10. 2:30 0
Do, 17.10. 2:20 0
Do, 17.10. 2:10 0
Do, 17.10. 2:00 0
Do, 17.10. 1:40 0
Do, 17.10. 1:30 0
Do, 17.10. 1:00 0
Do, 17.10. 0:30 0
Do, 17.10. 0:00 0
Mi, 16.10. 23:30 0
Link zu dieser Seite / Seite empfehlen

Das Wetter in ...